This is the latest recevied weather packets stored in our database for station/object kc7mrq. If no packets are shown the sender has not sent any weather packets the latest 10 day(s).
| Time | Temp. | Humidity | Pressure | Rain* | Wind** | Luminosity | Snow |
|---|---|---|---|---|---|---|---|
| 1777458632 | 0° C | 85% | 1021.8 hPa | 0 mm | - | - | - |
| 1777455026 | 1.11° C | 82% | 1021.4 hPa | 0 mm | - | - | - |
| 1777454126 | 1.11° C | 82% | 1021.3 hPa | 0 mm | - | - | - |
| 1777453227 | 1.11° C | 82% | 1021.4 hPa | 0 mm | - | - | - |
| 1777443311 | 1.67° C | 83% | 1021.3 hPa | 0 mm | - | - | - |
| 1777441513 | 1.67° C | 86% | 1021.6 hPa | 0 mm | - | - | - |
| 1777439705 | 1.67° C | 87% | 1021.5 hPa | 0 mm | - | - | - |
| 1777429847 | 4.44° C | 63% | 1020.3 hPa | 0 mm | - | - | - |
| 1777427146 | 5.56° C | 60% | 1020.2 hPa | 0 mm | - | - | - |
| 1777420843 | 8.89° C | 42% | 1019.2 hPa | 0 mm | - | - | - |
| 1777413631 | 6.11° C | 62% | 1019.3 hPa | 0 mm | - | - | - |
| 1777404617 | 6.67° C | 53% | 1019.3 hPa | 0 mm | - | - | - |
| 1777401916 | 4.44° C | 64% | 1019.6 hPa | 0 mm | - | - | - |
| 1777397402 | 4.44° C | 68% | 1019.7 hPa | 0 mm | - | - | - |
| 1777395660 | 3.89° C | 70% | 1019.8 hPa | 0 mm | - | - | - |
| 1777392051 | 1.11° C | 87% | 1020 hPa | 0 mm | - | - | - |
| 1777384834 | 1.67° C | 71% | 1019.3 hPa | 0 mm | - | - | - |
| 1777378512 | 0° C | 76% | 1018.3 hPa | 0 mm | - | - | - |
| 1777376708 | -0.56° C | 80% | 1018.1 hPa | 0 mm | - | - | - |
| 1777372203 | -0.56° C | 76% | 1018 hPa | 0 mm | - | - | - |
| 1777368676 | -0.56° C | 77% | 1017.9 hPa | 0 mm | - | - | - |
| 1777366859 | -1.11° C | 78% | 1018.2 hPa | 0 mm | - | - | - |
| 1777361446 | -1.11° C | 76% | 1018.2 hPa | 0 mm | - | - | - |
| 1777360545 | -0.56° C | 74% | 1018.1 hPa | 0 mm | - | - | - |
| 1777357855 | -1.67° C | 73% | 1018 hPa | 0 mm | - | - | - |
* Rain latest hour (hover to see other rain measurements)
** Current wind speed in m/s (hover to see current wind gust speed)